sensor_id;sensor_type;location;lat;lon;timestamp;P1;durP1;ratioP1;P2;durP2;ratioP2
10537;SDS011;5317;49.048;8.468;2022-09-27T00:01:39;1.30;;;1.20;;
10537;SDS011;5317;49.048;8.468;2022-09-27T00:04:09;2.07;;;1.10;;
10537;SDS011;5317;49.048;8.468;2022-09-27T00:06:38;1.37;;;1.30;;
10537;SDS011;5317;49.048;8.468;2022-09-27T00:09:06;2.00;;;1.20;;
10537;SDS011;5317;49.048;8.468;2022-09-27T00:11:35;1.13;;;1.10;;
10537;SDS011;5317;49.048;8.468;2022-09-27T00:14:04;1.20;;;1.10;;
10537;SDS011;5317;49.048;8.468;2022-09-27T00:16:34;1.23;;;1.17;;
10537;SDS011;5317;49.048;8.468;2022-09-27T00:19:04;1.30;;;1.20;;
10537;SDS011;5317;49.048;8.468;2022-09-27T00:21:35;1.73;;;1.50;;
10537;SDS011;5317;49.048;8.468;2022-09-27T00:24:04;1.30;;;1.20;;
10537;SDS011;5317;49.048;8.468;2022-09-27T00:26:32;2.73;;;1.50;;
10537;SDS011;5317;49.048;8.468;2022-09-27T00:28:59;1.40;;;1.30;;
10537;SDS011;5317;49.048;8.468;2022-09-27T00:31:27;1.90;;;1.17;;
10537;SDS011;5317;49.048;8.468;2022-09-27T00:33:59;1.40;;;1.30;;
10537;SDS011;5317;49.048;8.468;2022-09-27T00:36:28;2.10;;;1.40;;
10537;SDS011;5317;49.048;8.468;2022-09-27T00:38:57;1.47;;;1.37;;
10537;SDS011;5317;49.048;8.468;2022-09-27T00:41:28;2.10;;;1.40;;
10537;SDS011;5317;49.048;8.468;2022-09-27T00:44:01;1.70;;;1.60;;
10537;SDS011;5317;49.048;8.468;2022-09-27T00:46:32;1.37;;;1.20;;
10537;SDS011;5317;49.048;8.468;2022-09-27T00:49:10;1.23;;;1.17;;
10537;SDS011;5317;49.048;8.468;2022-09-27T00:51:47;2.33;;;1.50;;
10537;SDS011;5317;49.048;8.468;2022-09-27T00:54:23;2.57;;;1.57;;
10537;SDS011;5317;49.048;8.468;2022-09-27T00:56:55;2.10;;;1.60;;
10537;SDS011;5317;49.048;8.468;2022-09-27T00:59:25;1.57;;;1.47;;
10537;SDS011;5317;49.048;8.468;2022-09-27T01:01:59;3.27;;;1.30;;
10537;SDS011;5317;49.048;8.468;2022-09-27T01:04:28;3.03;;;1.50;;
10537;SDS011;5317;49.048;8.468;2022-09-27T01:07:00;1.90;;;1.73;;
10537;SDS011;5317;49.048;8.468;2022-09-27T01:09:28;3.13;;;1.77;;
10537;SDS011;5317;49.048;8.468;2022-09-27T01:12:07;2.27;;;1.67;;
10537;SDS011;5317;49.048;8.468;2022-09-27T01:14:51;3.47;;;1.40;;
10537;SDS011;5317;49.048;8.468;2022-09-27T01:17:42;1.67;;;1.40;;
10537;SDS011;5317;49.048;8.468;2022-09-27T01:23:57;1.70;;;1.60;;
10537;SDS011;5317;49.048;8.468;2022-09-27T01:30:19;1.53;;;1.43;;
10537;SDS011;5317;49.048;8.468;2022-09-27T01:33:04;1.50;;;1.33;;
10537;SDS011;5317;49.048;8.468;2022-09-27T01:35:47;1.50;;;1.40;;
10537;SDS011;5317;49.048;8.468;2022-09-27T01:38:36;1.50;;;1.40;;
10537;SDS011;5317;49.048;8.468;2022-09-27T01:41:14;2.03;;;1.50;;
10537;SDS011;5317;49.048;8.468;2022-09-27T01:43:53;1.60;;;1.23;;
10537;SDS011;5317;49.048;8.468;2022-09-27T01:46:28;1.27;;;1.20;;
10537;SDS011;5317;49.048;8.468;2022-09-27T01:49:04;2.03;;;1.20;;
10537;SDS011;5317;49.048;8.468;2022-09-27T01:51:41;2.77;;;1.70;;
10537;SDS011;5317;49.048;8.468;2022-09-27T01:54:15;1.50;;;1.40;;
10537;SDS011;5317;49.048;8.468;2022-09-27T01:56:49;1.83;;;1.20;;
10537;SDS011;5317;49.048;8.468;2022-09-27T01:59:22;1.73;;;1.47;;
10537;SDS011;5317;49.048;8.468;2022-09-27T02:01:58;2.57;;;1.17;;
10537;SDS011;5317;49.048;8.468;2022-09-27T02:04:30;1.27;;;1.17;;
10537;SDS011;5317;49.048;8.468;2022-09-27T02:07:05;2.00;;;1.20;;
10537;SDS011;5317;49.048;8.468;2022-09-27T02:09:57;1.83;;;1.40;;
10537;SDS011;5317;49.048;8.468;2022-09-27T02:12:29;1.80;;;1.17;;
10537;SDS011;5317;49.048;8.468;2022-09-27T02:15:16;2.47;;;1.20;;
10537;SDS011;5317;49.048;8.468;2022-09-27T02:17:49;1.97;;;1.27;;
10537;SDS011;5317;49.048;8.468;2022-09-27T02:20:28;2.43;;;1.50;;
10537;SDS011;5317;49.048;8.468;2022-09-27T02:23:03;1.90;;;1.27;;
10537;SDS011;5317;49.048;8.468;2022-09-27T02:25:43;2.33;;;1.70;;
10537;SDS011;5317;49.048;8.468;2022-09-27T02:28:21;2.80;;;1.70;;
10537;SDS011;5317;49.048;8.468;2022-09-27T02:30:56;2.00;;;1.33;;
10537;SDS011;5317;49.048;8.468;2022-09-27T02:33:25;3.87;;;1.73;;
10537;SDS011;5317;49.048;8.468;2022-09-27T02:36:03;3.50;;;1.60;;
10537;SDS011;5317;49.048;8.468;2022-09-27T02:38:31;2.63;;;1.67;;
10537;SDS011;5317;49.048;8.468;2022-09-27T02:40:58;2.73;;;1.77;;
10537;SDS011;5317;49.048;8.468;2022-09-27T02:43:26;2.77;;;1.80;;
10537;SDS011;5317;49.048;8.468;2022-09-27T02:46:03;2.63;;;1.90;;
10537;SDS011;5317;49.048;8.468;2022-09-27T02:48:53;2.70;;;1.63;;
10537;SDS011;5317;49.048;8.468;2022-09-27T02:51:42;4.50;;;1.87;;
10537;SDS011;5317;49.048;8.468;2022-09-27T02:54:28;3.27;;;1.87;;
10537;SDS011;5317;49.048;8.468;2022-09-27T02:57:17;2.93;;;1.70;;
10537;SDS011;5317;49.048;8.468;2022-09-27T03:00:02;6.43;;;2.00;;
10537;SDS011;5317;49.048;8.468;2022-09-27T03:02:34;2.93;;;1.80;;
10537;SDS011;5317;49.048;8.468;2022-09-27T03:05:16;3.30;;;1.87;;
10537;SDS011;5317;49.048;8.468;2022-09-27T03:07:49;2.90;;;1.83;;
10537;SDS011;5317;49.048;8.468;2022-09-27T03:10:19;3.13;;;1.83;;
10537;SDS011;5317;49.048;8.468;2022-09-27T03:12:49;5.60;;;2.03;;
10537;SDS011;5317;49.048;8.468;2022-09-27T03:15:18;6.03;;;2.27;;
10537;SDS011;5317;49.048;8.468;2022-09-27T03:17:45;7.00;;;2.07;;
10537;SDS011;5317;49.048;8.468;2022-09-27T03:20:13;5.23;;;2.23;;
10537;SDS011;5317;49.048;8.468;2022-09-27T03:22:42;7.63;;;2.47;;
10537;SDS011;5317;49.048;8.468;2022-09-27T03:25:10;4.20;;;2.53;;
10537;SDS011;5317;49.048;8.468;2022-09-27T03:27:37;3.43;;;1.93;;
10537;SDS011;5317;49.048;8.468;2022-09-27T03:30:05;4.53;;;2.30;;
10537;SDS011;5317;49.048;8.468;2022-09-27T03:32:33;3.80;;;2.13;;
10537;SDS011;5317;49.048;8.468;2022-09-27T03:35:01;5.93;;;2.70;;
10537;SDS011;5317;49.048;8.468;2022-09-27T03:37:30;5.40;;;2.40;;
10537;SDS011;5317;49.048;8.468;2022-09-27T03:39:57;5.13;;;2.33;;
10537;SDS011;5317;49.048;8.468;2022-09-27T03:42:24;6.30;;;2.70;;
10537;SDS011;5317;49.048;8.468;2022-09-27T03:44:51;5.83;;;2.67;;
10537;SDS011;5317;49.048;8.468;2022-09-27T03:47:21;7.03;;;2.57;;
10537;SDS011;5317;49.048;8.468;2022-09-27T03:49:49;4.23;;;2.50;;
10537;SDS011;5317;49.048;8.468;2022-09-27T03:52:16;4.13;;;2.70;;
10537;SDS011;5317;49.048;8.468;2022-09-27T03:54:45;4.80;;;2.37;;
10537;SDS011;5317;49.048;8.468;2022-09-27T03:57:12;7.87;;;2.80;;
10537;SDS011;5317;49.048;8.468;2022-09-27T03:59:39;8.07;;;2.30;;
10537;SDS011;5317;49.048;8.468;2022-09-27T04:02:06;7.27;;;2.33;;
10537;SDS011;5317;49.048;8.468;2022-09-27T04:04:34;5.07;;;2.40;;
10537;SDS011;5317;49.048;8.468;2022-09-27T04:07:01;7.17;;;2.37;;
10537;SDS011;5317;49.048;8.468;2022-09-27T04:09:28;8.00;;;2.40;;
10537;SDS011;5317;49.048;8.468;2022-09-27T04:11:57;5.80;;;2.77;;
10537;SDS011;5317;49.048;8.468;2022-09-27T04:14:24;5.50;;;2.40;;
10537;SDS011;5317;49.048;8.468;2022-09-27T04:16:52;3.97;;;2.40;;
10537;SDS011;5317;49.048;8.468;2022-09-27T04:19:19;3.87;;;2.30;;
10537;SDS011;5317;49.048;8.468;2022-09-27T04:21:46;5.20;;;2.90;;
10537;SDS011;5317;49.048;8.468;2022-09-27T04:24:13;7.30;;;2.90;;
10537;SDS011;5317;49.048;8.468;2022-09-27T04:26:40;5.77;;;2.87;;
10537;SDS011;5317;49.048;8.468;2022-09-27T04:29:09;5.30;;;2.30;;
10537;SDS011;5317;49.048;8.468;2022-09-27T04:31:36;5.83;;;2.50;;
10537;SDS011;5317;49.048;8.468;2022-09-27T04:34:03;3.00;;;2.23;;
10537;SDS011;5317;49.048;8.468;2022-09-27T04:36:31;3.53;;;2.20;;
10537;SDS011;5317;49.048;8.468;2022-09-27T04:38:58;4.27;;;2.00;;
10537;SDS011;5317;49.048;8.468;2022-09-27T04:41:29;10.77;;;2.47;;
10537;SDS011;5317;49.048;8.468;2022-09-27T04:43:59;3.23;;;2.00;;
10537;SDS011;5317;49.048;8.468;2022-09-27T04:46:29;6.00;;;2.13;;
10537;SDS011;5317;49.048;8.468;2022-09-27T04:48:57;4.87;;;2.20;;
10537;SDS011;5317;49.048;8.468;2022-09-27T04:51:25;5.37;;;2.13;;
10537;SDS011;5317;49.048;8.468;2022-09-27T04:53:54;3.13;;;2.13;;
10537;SDS011;5317;49.048;8.468;2022-09-27T04:56:22;5.77;;;2.30;;
10537;SDS011;5317;49.048;8.468;2022-09-27T04:58:56;4.03;;;2.13;;
10537;SDS011;5317;49.048;8.468;2022-09-27T05:01:23;3.70;;;1.90;;
10537;SDS011;5317;49.048;8.468;2022-09-27T05:03:52;4.37;;;1.83;;
10537;SDS011;5317;49.048;8.468;2022-09-27T05:06:22;5.60;;;2.03;;
10537;SDS011;5317;49.048;8.468;2022-09-27T05:08:49;3.47;;;1.90;;
10537;SDS011;5317;49.048;8.468;2022-09-27T05:11:17;3.53;;;2.30;;
10537;SDS011;5317;49.048;8.468;2022-09-27T05:13:44;4.17;;;2.20;;
10537;SDS011;5317;49.048;8.468;2022-09-27T05:16:12;4.30;;;1.93;;
10537;SDS011;5317;49.048;8.468;2022-09-27T05:18:39;3.90;;;1.80;;
10537;SDS011;5317;49.048;8.468;2022-09-27T05:21:08;5.00;;;2.10;;
10537;SDS011;5317;49.048;8.468;2022-09-27T05:23:35;5.03;;;2.10;;
10537;SDS011;5317;49.048;8.468;2022-09-27T05:26:03;3.57;;;2.20;;
10537;SDS011;5317;49.048;8.468;2022-09-27T05:28:30;2.93;;;1.93;;
10537;SDS011;5317;49.048;8.468;2022-09-27T05:30:59;4.17;;;1.80;;
10537;SDS011;5317;49.048;8.468;2022-09-27T05:33:26;4.57;;;2.33;;
10537;SDS011;5317;49.048;8.468;2022-09-27T05:35:54;4.17;;;2.07;;
10537;SDS011;5317;49.048;8.468;2022-09-27T05:38:24;4.37;;;2.00;;
10537;SDS011;5317;49.048;8.468;2022-09-27T05:40:51;3.97;;;2.10;;
10537;SDS011;5317;49.048;8.468;2022-09-27T05:43:19;3.23;;;1.90;;
10537;SDS011;5317;49.048;8.468;2022-09-27T05:45:46;4.73;;;1.97;;
10537;SDS011;5317;49.048;8.468;2022-09-27T05:48:15;3.40;;;1.87;;
10537;SDS011;5317;49.048;8.468;2022-09-27T05:50:46;2.50;;;1.60;;
10537;SDS011;5317;49.048;8.468;2022-09-27T05:53:13;3.17;;;1.80;;
10537;SDS011;5317;49.048;8.468;2022-09-27T05:55:42;1.87;;;1.67;;
10537;SDS011;5317;49.048;8.468;2022-09-27T05:58:09;3.40;;;1.77;;
10537;SDS011;5317;49.048;8.468;2022-09-27T06:00:37;2.67;;;1.73;;
10537;SDS011;5317;49.048;8.468;2022-09-27T06:03:05;2.80;;;1.60;;
10537;SDS011;5317;49.048;8.468;2022-09-27T06:05:34;4.37;;;1.87;;
10537;SDS011;5317;49.048;8.468;2022-09-27T06:08:03;2.37;;;2.10;;
10537;SDS011;5317;49.048;8.468;2022-09-27T06:10:33;2.67;;;1.70;;
10537;SDS011;5317;49.048;8.468;2022-09-27T06:13:03;3.30;;;1.60;;
10537;SDS011;5317;49.048;8.468;2022-09-27T06:15:33;3.93;;;1.70;;
10537;SDS011;5317;49.048;8.468;2022-09-27T06:18:03;1.93;;;1.67;;
10537;SDS011;5317;49.048;8.468;2022-09-27T06:20:34;2.40;;;1.77;;
10537;SDS011;5317;49.048;8.468;2022-09-27T06:23:03;2.67;;;1.77;;
10537;SDS011;5317;49.048;8.468;2022-09-27T06:25:32;2.23;;;1.27;;
10537;SDS011;5317;49.048;8.468;2022-09-27T06:28:01;2.53;;;1.40;;
10537;SDS011;5317;49.048;8.468;2022-09-27T06:30:30;2.63;;;1.50;;
10537;SDS011;5317;49.048;8.468;2022-09-27T06:32:58;2.27;;;1.50;;
10537;SDS011;5317;49.048;8.468;2022-09-27T06:35:28;2.77;;;1.60;;
10537;SDS011;5317;49.048;8.468;2022-09-27T06:38:01;4.10;;;1.50;;
10537;SDS011;5317;49.048;8.468;2022-09-27T06:40:31;2.43;;;1.60;;
10537;SDS011;5317;49.048;8.468;2022-09-27T06:43:00;2.40;;;1.50;;
10537;SDS011;5317;49.048;8.468;2022-09-27T06:45:32;2.33;;;1.50;;
10537;SDS011;5317;49.048;8.468;2022-09-27T06:48:00;1.30;;;1.20;;
10537;SDS011;5317;49.048;8.468;2022-09-27T06:50:28;2.13;;;1.30;;
10537;SDS011;5317;49.048;8.468;2022-09-27T06:52:56;2.37;;;1.50;;
10537;SDS011;5317;49.048;8.468;2022-09-27T06:55:24;1.67;;;1.23;;
10537;SDS011;5317;49.048;8.468;2022-09-27T06:57:52;2.17;;;1.30;;
10537;SDS011;5317;49.048;8.468;2022-09-27T07:00:39;1.93;;;1.27;;
10537;SDS011;5317;49.048;8.468;2022-09-27T07:03:07;1.27;;;1.17;;
10537;SDS011;5317;49.048;8.468;2022-09-27T07:05:37;0.90;;;0.90;;
10537;SDS011;5317;49.048;8.468;2022-09-27T07:08:05;1.70;;;1.43;;
10537;SDS011;5317;49.048;8.468;2022-09-27T07:10:36;2.63;;;1.30;;
10537;SDS011;5317;49.048;8.468;2022-09-27T07:13:05;1.43;;;1.20;;
10537;SDS011;5317;49.048;8.468;2022-09-27T07:15:35;1.23;;;1.10;;
10537;SDS011;5317;49.048;8.468;2022-09-27T07:18:06;3.37;;;1.20;;
10537;SDS011;5317;49.048;8.468;2022-09-27T07:20:34;1.30;;;1.20;;
10537;SDS011;5317;49.048;8.468;2022-09-27T07:23:02;5.03;;;1.40;;
10537;SDS011;5317;49.048;8.468;2022-09-27T07:25:31;1.60;;;1.40;;
10537;SDS011;5317;49.048;8.468;2022-09-27T07:27:59;1.77;;;1.20;;
10537;SDS011;5317;49.048;8.468;2022-09-27T07:30:28;1.30;;;1.20;;
10537;SDS011;5317;49.048;8.468;2022-09-27T07:32:57;2.73;;;1.20;;
10537;SDS011;5317;49.048;8.468;2022-09-27T07:35:25;1.33;;;1.10;;
10537;SDS011;5317;49.048;8.468;2022-09-27T07:37:54;3.30;;;1.60;;
10537;SDS011;5317;49.048;8.468;2022-09-27T07:40:23;1.50;;;1.00;;
10537;SDS011;5317;49.048;8.468;2022-09-27T07:42:54;2.53;;;1.20;;
10537;SDS011;5317;49.048;8.468;2022-09-27T07:45:23;1.53;;;1.23;;
10537;SDS011;5317;49.048;8.468;2022-09-27T07:47:51;3.63;;;1.10;;
10537;SDS011;5317;49.048;8.468;2022-09-27T07:50:20;2.03;;;1.30;;
10537;SDS011;5317;49.048;8.468;2022-09-27T07:52:48;2.10;;;1.27;;
10537;SDS011;5317;49.048;8.468;2022-09-27T07:55:16;1.83;;;1.30;;
10537;SDS011;5317;49.048;8.468;2022-09-27T07:57:44;1.70;;;1.30;;
10537;SDS011;5317;49.048;8.468;2022-09-27T08:00:13;2.27;;;1.33;;
10537;SDS011;5317;49.048;8.468;2022-09-27T08:02:44;1.73;;;1.40;;
10537;SDS011;5317;49.048;8.468;2022-09-27T08:05:11;1.33;;;1.17;;
10537;SDS011;5317;49.048;8.468;2022-09-27T08:07:41;2.23;;;1.20;;
10537;SDS011;5317;49.048;8.468;2022-09-27T08:10:08;1.50;;;1.30;;
10537;SDS011;5317;49.048;8.468;2022-09-27T08:12:36;2.50;;;1.23;;
10537;SDS011;5317;49.048;8.468;2022-09-27T08:15:04;1.50;;;1.40;;
10537;SDS011;5317;49.048;8.468;2022-09-27T08:17:32;2.90;;;1.50;;
10537;SDS011;5317;49.048;8.468;2022-09-27T08:19:59;3.33;;;1.60;;
10537;SDS011;5317;49.048;8.468;2022-09-27T08:22:30;2.90;;;1.70;;
10537;SDS011;5317;49.048;8.468;2022-09-27T08:24:59;3.13;;;1.83;;
10537;SDS011;5317;49.048;8.468;2022-09-27T08:27:26;1.70;;;1.60;;
10537;SDS011;5317;49.048;8.468;2022-09-27T08:29:53;3.27;;;1.70;;
10537;SDS011;5317;49.048;8.468;2022-09-27T08:32:20;2.27;;;1.60;;
10537;SDS011;5317;49.048;8.468;2022-09-27T08:34:48;2.57;;;1.60;;
10537;SDS011;5317;49.048;8.468;2022-09-27T08:37:16;3.60;;;1.60;;
10537;SDS011;5317;49.048;8.468;2022-09-27T08:39:43;4.07;;;1.90;;
10537;SDS011;5317;49.048;8.468;2022-09-27T08:42:13;2.53;;;1.67;;
10537;SDS011;5317;49.048;8.468;2022-09-27T08:45:10;2.57;;;1.50;;
10537;SDS011;5317;49.048;8.468;2022-09-27T08:47:44;2.50;;;1.67;;
10537;SDS011;5317;49.048;8.468;2022-09-27T08:50:21;2.87;;;1.90;;
10537;SDS011;5317;49.048;8.468;2022-09-27T08:52:55;1.73;;;1.63;;
10537;SDS011;5317;49.048;8.468;2022-09-27T08:55:30;3.10;;;1.87;;
10537;SDS011;5317;49.048;8.468;2022-09-27T08:58:08;3.03;;;2.20;;
10537;SDS011;5317;49.048;8.468;2022-09-27T09:00:44;2.33;;;2.13;;
10537;SDS011;5317;49.048;8.468;2022-09-27T09:03:15;2.37;;;1.60;;
10537;SDS011;5317;49.048;8.468;2022-09-27T09:05:51;3.47;;;1.80;;
10537;SDS011;5317;49.048;8.468;2022-09-27T09:08:36;3.80;;;2.20;;
10537;SDS011;5317;49.048;8.468;2022-09-27T09:11:18;2.00;;;1.80;;
10537;SDS011;5317;49.048;8.468;2022-09-27T09:14:24;3.13;;;1.90;;
10537;SDS011;5317;49.048;8.468;2022-09-27T09:17:16;5.80;;;2.20;;
10537;SDS011;5317;49.048;8.468;2022-09-27T09:19:58;2.70;;;2.00;;
10537;SDS011;5317;49.048;8.468;2022-09-27T09:22:49;5.10;;;2.17;;
10537;SDS011;5317;49.048;8.468;2022-09-27T09:25:38;3.77;;;2.33;;
10537;SDS011;5317;49.048;8.468;2022-09-27T09:28:20;2.63;;;2.17;;
10537;SDS011;5317;49.048;8.468;2022-09-27T09:31:05;5.43;;;2.43;;
10537;SDS011;5317;49.048;8.468;2022-09-27T09:33:47;4.07;;;2.43;;
10537;SDS011;5317;49.048;8.468;2022-09-27T09:36:24;3.43;;;2.13;;
10537;SDS011;5317;49.048;8.468;2022-09-27T09:39:01;4.40;;;2.00;;
10537;SDS011;5317;49.048;8.468;2022-09-27T09:41:39;4.40;;;2.10;;
10537;SDS011;5317;49.048;8.468;2022-09-27T09:44:21;5.03;;;2.33;;
10537;SDS011;5317;49.048;8.468;2022-09-27T09:46:56;2.47;;;2.20;;
10537;SDS011;5317;49.048;8.468;2022-09-27T09:49:28;4.87;;;2.47;;
10537;SDS011;5317;49.048;8.468;2022-09-27T09:52:05;3.60;;;1.80;;
10537;SDS011;5317;49.048;8.468;2022-09-27T09:54:40;3.60;;;1.90;;
10537;SDS011;5317;49.048;8.468;2022-09-27T09:57:15;3.20;;;2.30;;
10537;SDS011;5317;49.048;8.468;2022-09-27T09:59:48;4.50;;;2.70;;
10537;SDS011;5317;49.048;8.468;2022-09-27T10:02:27;4.27;;;2.33;;
10537;SDS011;5317;49.048;8.468;2022-09-27T10:05:00;4.23;;;2.30;;
10537;SDS011;5317;49.048;8.468;2022-09-27T10:07:28;2.77;;;2.20;;
10537;SDS011;5317;49.048;8.468;2022-09-27T10:10:00;5.13;;;2.30;;
10537;SDS011;5317;49.048;8.468;2022-09-27T10:12:32;3.87;;;2.30;;
10537;SDS011;5317;49.048;8.468;2022-09-27T10:15:02;4.97;;;2.20;;
10537;SDS011;5317;49.048;8.468;2022-09-27T10:17:34;3.97;;;2.70;;
10537;SDS011;5317;49.048;8.468;2022-09-27T10:20:06;6.63;;;2.30;;
10537;SDS011;5317;49.048;8.468;2022-09-27T10:22:52;2.93;;;2.43;;
10537;SDS011;5317;49.048;8.468;2022-09-27T10:25:23;2.57;;;2.30;;
10537;SDS011;5317;49.048;8.468;2022-09-27T10:28:00;2.57;;;2.30;;
10537;SDS011;5317;49.048;8.468;2022-09-27T10:30:28;4.70;;;2.90;;
10537;SDS011;5317;49.048;8.468;2022-09-27T10:33:13;3.40;;;2.30;;
10537;SDS011;5317;49.048;8.468;2022-09-27T10:35:44;5.07;;;2.07;;
10537;SDS011;5317;49.048;8.468;2022-09-27T10:38:21;5.07;;;2.10;;
10537;SDS011;5317;49.048;8.468;2022-09-27T10:40:53;2.63;;;1.80;;
10537;SDS011;5317;49.048;8.468;2022-09-27T10:43:30;2.97;;;1.80;;
10537;SDS011;5317;49.048;8.468;2022-09-27T10:46:03;2.20;;;1.83;;
10537;SDS011;5317;49.048;8.468;2022-09-27T10:48:40;2.17;;;1.30;;
10537;SDS011;5317;49.048;8.468;2022-09-27T10:51:21;2.37;;;1.37;;
10537;SDS011;5317;49.048;8.468;2022-09-27T10:54:04;0.90;;;0.90;;
10537;SDS011;5317;49.048;8.468;2022-09-27T10:56:41;2.20;;;0.90;;
10537;SDS011;5317;49.048;8.468;2022-09-27T10:59:13;1.27;;;1.13;;
10537;SDS011;5317;49.048;8.468;2022-09-27T11:01:44;1.37;;;1.10;;
10537;SDS011;5317;49.048;8.468;2022-09-27T11:04:20;1.77;;;1.03;;
10537;SDS011;5317;49.048;8.468;2022-09-27T11:07:05;0.87;;;0.87;;
10537;SDS011;5317;49.048;8.468;2022-09-27T11:09:44;1.63;;;0.90;;
10537;SDS011;5317;49.048;8.468;2022-09-27T11:12:17;0.73;;;0.73;;
10537;SDS011;5317;49.048;8.468;2022-09-27T11:14:51;1.50;;;0.70;;
10537;SDS011;5317;49.048;8.468;2022-09-27T11:17:26;2.60;;;1.20;;
10537;SDS011;5317;49.048;8.468;2022-09-27T11:20:18;0.67;;;0.67;;
10537;SDS011;5317;49.048;8.468;2022-09-27T11:23:02;1.43;;;0.80;;
10537;SDS011;5317;49.048;8.468;2022-09-27T11:25:53;1.30;;;0.90;;
10537;SDS011;5317;49.048;8.468;2022-09-27T11:28:38;0.70;;;0.67;;
10537;SDS011;5317;49.048;8.468;2022-09-27T11:31:25;0.97;;;0.83;;
10537;SDS011;5317;49.048;8.468;2022-09-27T11:37:25;0.90;;;0.73;;
10537;SDS011;5317;49.048;8.468;2022-09-27T11:40:07;1.37;;;1.07;;
10537;SDS011;5317;49.048;8.468;2022-09-27T11:45:59;0.97;;;0.80;;
10537;SDS011;5317;49.048;8.468;2022-09-27T11:48:43;1.00;;;0.97;;
10537;SDS011;5317;49.048;8.468;2022-09-27T11:51:31;1.20;;;0.83;;
10537;SDS011;5317;49.048;8.468;2022-09-27T11:57:16;1.27;;;0.97;;
10537;SDS011;5317;49.048;8.468;2022-09-27T12:06:00;1.87;;;1.13;;
10537;SDS011;5317;49.048;8.468;2022-09-27T12:08:38;1.63;;;0.90;;
10537;SDS011;5317;49.048;8.468;2022-09-27T12:11:24;0.97;;;0.97;;
10537;SDS011;5317;49.048;8.468;2022-09-27T12:13:57;1.63;;;1.13;;
10537;SDS011;5317;49.048;8.468;2022-09-27T12:16:30;2.53;;;1.30;;
10537;SDS011;5317;49.048;8.468;2022-09-27T12:18:59;2.20;;;1.20;;
10537;SDS011;5317;49.048;8.468;2022-09-27T12:21:29;2.37;;;1.20;;
10537;SDS011;5317;49.048;8.468;2022-09-27T12:23:58;1.27;;;0.90;;
10537;SDS011;5317;49.048;8.468;2022-09-27T12:26:29;2.77;;;0.93;;
10537;SDS011;5317;49.048;8.468;2022-09-27T12:29:04;1.80;;;1.20;;
10537;SDS011;5317;49.048;8.468;2022-09-27T12:31:40;1.77;;;1.57;;
10537;SDS011;5317;49.048;8.468;2022-09-27T12:34:16;1.23;;;1.10;;
10537;SDS011;5317;49.048;8.468;2022-09-27T12:36:50;1.43;;;0.90;;
10537;SDS011;5317;49.048;8.468;2022-09-27T12:39:27;1.47;;;1.30;;
10537;SDS011;5317;49.048;8.468;2022-09-27T12:42:11;1.83;;;1.20;;
10537;SDS011;5317;49.048;8.468;2022-09-27T12:44:45;1.00;;;0.87;;
10537;SDS011;5317;49.048;8.468;2022-09-27T12:47:16;1.53;;;1.20;;
10537;SDS011;5317;49.048;8.468;2022-09-27T12:50:03;1.43;;;1.00;;
10537;SDS011;5317;49.048;8.468;2022-09-27T12:52:41;1.20;;;0.83;;
10537;SDS011;5317;49.048;8.468;2022-09-27T12:55:29;3.23;;;1.10;;
10537;SDS011;5317;49.048;8.468;2022-09-27T12:58:39;2.43;;;1.40;;
10537;SDS011;5317;49.048;8.468;2022-09-27T13:01:33;1.93;;;1.23;;
10537;SDS011;5317;49.048;8.468;2022-09-27T13:04:26;4.10;;;1.43;;
10537;SDS011;5317;49.048;8.468;2022-09-27T13:07:23;2.70;;;1.37;;
10537;SDS011;5317;49.048;8.468;2022-09-27T13:10:28;1.17;;;1.10;;
10537;SDS011;5317;49.048;8.468;2022-09-27T13:13:09;10.97;;;2.90;;
10537;SDS011;5317;49.048;8.468;2022-09-27T13:15:43;3.07;;;1.27;;
10537;SDS011;5317;49.048;8.468;2022-09-27T13:24:30;2.30;;;1.30;;
10537;SDS011;5317;49.048;8.468;2022-09-27T13:36:19;2.73;;;1.47;;
10537;SDS011;5317;49.048;8.468;2022-09-27T13:38:57;2.00;;;1.17;;
10537;SDS011;5317;49.048;8.468;2022-09-27T13:42:03;1.60;;;1.00;;
10537;SDS011;5317;49.048;8.468;2022-09-27T13:44:49;1.00;;;1.00;;
10537;SDS011;5317;49.048;8.468;2022-09-27T13:47:42;1.40;;;1.10;;
10537;SDS011;5317;49.048;8.468;2022-09-27T13:50:17;1.13;;;1.03;;
10537;SDS011;5317;49.048;8.468;2022-09-27T13:52:56;1.00;;;0.80;;
10537;SDS011;5317;49.048;8.468;2022-09-27T13:55:42;1.30;;;1.10;;
10537;SDS011;5317;49.048;8.468;2022-09-27T13:58:14;2.63;;;1.40;;
10537;SDS011;5317;49.048;8.468;2022-09-27T14:00:59;1.53;;;1.10;;
10537;SDS011;5317;49.048;8.468;2022-09-27T14:06:40;1.37;;;1.20;;
10537;SDS011;5317;49.048;8.468;2022-09-27T14:09:15;2.37;;;1.17;;
10537;SDS011;5317;49.048;8.468;2022-09-27T14:11:47;1.37;;;1.27;;
10537;SDS011;5317;49.048;8.468;2022-09-27T14:14:23;1.50;;;1.40;;
10537;SDS011;5317;49.048;8.468;2022-09-27T14:16:54;1.23;;;1.20;;
10537;SDS011;5317;49.048;8.468;2022-09-27T14:19:27;1.73;;;1.37;;
10537;SDS011;5317;49.048;8.468;2022-09-27T14:21:55;1.07;;;1.07;;
10537;SDS011;5317;49.048;8.468;2022-09-27T14:24:27;2.00;;;1.33;;
10537;SDS011;5317;49.048;8.468;2022-09-27T14:29:48;1.00;;;0.93;;
10537;SDS011;5317;49.048;8.468;2022-09-27T14:32:18;1.47;;;0.60;;
10537;SDS011;5317;49.048;8.468;2022-09-27T14:37:51;1.33;;;0.70;;
10537;SDS011;5317;49.048;8.468;2022-09-27T14:40:19;2.00;;;1.00;;
10537;SDS011;5317;49.048;8.468;2022-09-27T14:42:51;1.27;;;1.10;;
10537;SDS011;5317;49.048;8.468;2022-09-27T14:45:21;1.67;;;0.90;;
10537;SDS011;5317;49.048;8.468;2022-09-27T14:47:54;0.83;;;0.83;;
10537;SDS011;5317;49.048;8.468;2022-09-27T14:50:24;1.00;;;0.80;;
10537;SDS011;5317;49.048;8.468;2022-09-27T14:52:54;1.93;;;0.90;;
10537;SDS011;5317;49.048;8.468;2022-09-27T14:55:25;1.17;;;0.90;;
10537;SDS011;5317;49.048;8.468;2022-09-27T14:57:59;1.17;;;1.07;;
10537;SDS011;5317;49.048;8.468;2022-09-27T15:00:30;1.20;;;1.07;;
10537;SDS011;5317;49.048;8.468;2022-09-27T15:03:02;0.77;;;0.77;;
10537;SDS011;5317;49.048;8.468;2022-09-27T15:05:36;0.80;;;0.80;;
10537;SDS011;5317;49.048;8.468;2022-09-27T15:08:08;1.33;;;1.10;;
10537;SDS011;5317;49.048;8.468;2022-09-27T15:10:39;1.97;;;0.80;;
10537;SDS011;5317;49.048;8.468;2022-09-27T15:13:10;1.10;;;0.87;;
10537;SDS011;5317;49.048;8.468;2022-09-27T15:15:42;1.13;;;1.03;;
10537;SDS011;5317;49.048;8.468;2022-09-27T15:21:07;1.47;;;1.03;;
10537;SDS011;5317;49.048;8.468;2022-09-27T15:23:40;1.03;;;0.90;;
10537;SDS011;5317;49.048;8.468;2022-09-27T15:26:12;2.00;;;1.03;;
10537;SDS011;5317;49.048;8.468;2022-09-27T15:28:43;1.20;;;1.10;;
10537;SDS011;5317;49.048;8.468;2022-09-27T15:31:14;1.87;;;1.13;;
10537;SDS011;5317;49.048;8.468;2022-09-27T15:33:44;1.07;;;0.93;;
10537;SDS011;5317;49.048;8.468;2022-09-27T15:36:40;1.30;;;1.10;;
10537;SDS011;5317;49.048;8.468;2022-09-27T15:39:20;1.17;;;0.90;;
10537;SDS011;5317;49.048;8.468;2022-09-27T15:42:00;1.77;;;1.07;;
10537;SDS011;5317;49.048;8.468;2022-09-27T15:44:38;1.60;;;1.23;;
10537;SDS011;5317;49.048;8.468;2022-09-27T15:53:06;1.40;;;0.90;;
10537;SDS011;5317;49.048;8.468;2022-09-27T15:55:38;2.73;;;1.10;;
10537;SDS011;5317;49.048;8.468;2022-09-27T15:58:11;3.43;;;1.17;;
10537;SDS011;5317;49.048;8.468;2022-09-27T16:00:51;1.53;;;1.03;;
10537;SDS011;5317;49.048;8.468;2022-09-27T16:03:20;2.23;;;1.20;;
10537;SDS011;5317;49.048;8.468;2022-09-27T16:05:48;1.93;;;1.10;;
10537;SDS011;5317;49.048;8.468;2022-09-27T16:08:17;1.27;;;1.10;;
10537;SDS011;5317;49.048;8.468;2022-09-27T16:10:44;1.30;;;1.20;;
10537;SDS011;5317;49.048;8.468;2022-09-27T16:13:16;1.47;;;1.07;;
10537;SDS011;5317;49.048;8.468;2022-09-27T16:15:43;0.97;;;0.90;;
10537;SDS011;5317;49.048;8.468;2022-09-27T16:18:11;1.53;;;1.30;;
10537;SDS011;5317;49.048;8.468;2022-09-27T16:20:39;1.67;;;1.20;;
10537;SDS011;5317;49.048;8.468;2022-09-27T16:23:06;1.50;;;0.80;;
10537;SDS011;5317;49.048;8.468;2022-09-27T16:25:35;2.57;;;1.30;;
10537;SDS011;5317;49.048;8.468;2022-09-27T16:28:02;3.33;;;1.17;;
10537;SDS011;5317;49.048;8.468;2022-09-27T16:30:31;1.80;;;1.13;;
10537;SDS011;5317;49.048;8.468;2022-09-27T16:32:58;1.27;;;0.90;;
10537;SDS011;5317;49.048;8.468;2022-09-27T16:35:25;0.80;;;0.80;;